createdAt,value
2023-01-13T00:01:24.362Z,94.46
2023-01-13T00:03:53.513Z,94.41
2023-01-13T00:06:26.394Z,94.53
2023-01-13T00:08:55.748Z,94.15
2023-01-13T00:11:26.781Z,94.37
2023-01-13T00:13:55.948Z,94.41
2023-01-13T00:16:24.753Z,94.47
2023-01-13T00:18:53.634Z,94.42
2023-01-13T00:21:24.461Z,94.06
2023-01-13T00:23:54.351Z,94.04
2023-01-13T00:26:26.302Z,94.44
2023-01-13T00:28:59.657Z,94.19
2023-01-13T00:31:29.217Z,94.22
2023-01-13T00:33:58.083Z,94.33
2023-01-13T00:36:27.360Z,93.96
2023-01-13T00:38:56.815Z,94.07
2023-01-13T00:41:29.745Z,94.10
2023-01-13T00:43:57.663Z,93.92
2023-01-13T00:46:26.451Z,94.17
2023-01-13T00:48:55.419Z,94.22
2023-01-13T00:51:24.212Z,94.01
2023-01-13T00:53:53.799Z,94.39
2023-01-13T00:56:39.077Z,94.24
2023-01-13T00:59:15.095Z,94.39
2023-01-13T01:01:44.054Z,94.33
2023-01-13T01:04:13.043Z,94.12
2023-01-13T01:06:42.401Z,94.14
2023-01-13T01:09:15.535Z,94.66
2023-01-13T01:11:45.448Z,94.34
2023-01-13T01:14:16.029Z,94.46
2023-01-13T01:16:44.886Z,94.43
2023-01-13T01:19:13.749Z,94.70
2023-01-13T01:21:42.655Z,94.44
2023-01-13T01:24:11.560Z,94.63
2023-01-13T01:26:42.272Z,94.42
2023-01-13T01:29:16.222Z,94.42
2023-01-13T01:31:45.333Z,94.26
2023-01-13T01:34:14.227Z,94.28
2023-01-13T01:36:43.272Z,94.35
2023-01-13T01:39:12.382Z,94.29
2023-01-13T01:42:01.811Z,94.32
2023-01-13T01:44:51.503Z,94.33
2023-01-13T01:47:23.230Z,94.36
2023-01-13T01:49:52.450Z,94.51
2023-01-13T01:52:26.545Z,94.40
2023-01-13T01:55:01.167Z,94.50
2023-01-13T01:57:34.933Z,94.32
2023-01-13T02:00:04.201Z,94.58
2023-01-13T02:02:45.270Z,94.42
2023-01-13T02:05:14.320Z,94.45
2023-01-13T02:07:46.224Z,94.17
2023-01-13T02:10:20.483Z,94.32
2023-01-13T02:12:52.231Z,94.20
2023-01-13T02:15:24.430Z,94.27
2023-01-13T02:18:20.162Z,94.27
2023-01-13T02:21:12.500Z,94.28
2023-01-13T02:24:22.963Z,93.96
2023-01-13T02:27:23.276Z,94.02
2023-01-13T02:30:25.819Z,94.10
2023-01-13T02:33:15.560Z,94.06
2023-01-13T02:35:49.272Z,93.97
2023-01-13T02:38:25.053Z,93.85
2023-01-13T02:40:59.809Z,94.07
2023-01-13T02:43:54.177Z,93.79
2023-01-13T02:46:29.609Z,94.30
2023-01-13T02:49:04.228Z,94.12
2023-01-13T02:51:35.510Z,93.94
2023-01-13T02:54:08.813Z,94.13
2023-01-13T02:56:43.139Z,94.26
2023-01-13T02:59:14.027Z,93.94
2023-01-13T03:01:44.362Z,94.17
2023-01-13T03:04:14.518Z,94.05
2023-01-13T03:06:55.274Z,93.68
2023-01-13T03:09:30.889Z,93.94
2023-01-13T03:12:11.556Z,93.76
2023-01-13T03:14:49.530Z,94.10
2023-01-13T03:17:28.602Z,93.49
2023-01-13T03:20:05.992Z,93.67
2023-01-13T03:22:39.141Z,93.91
2023-01-13T03:25:14.639Z,93.79
2023-01-13T03:27:50.455Z,94.03
2023-01-13T03:30:24.773Z,94.23
2023-01-13T03:33:01.089Z,93.90
2023-01-13T03:35:34.213Z,93.83
2023-01-13T03:38:08.763Z,93.81
2023-01-13T03:40:43.398Z,94.00
2023-01-13T03:43:27.821Z,94.16
2023-01-13T03:46:01.853Z,94.01
2023-01-13T03:48:37.566Z,93.97
2023-01-13T03:51:09.587Z,94.03
2023-01-13T03:53:41.682Z,94.08
2023-01-13T03:56:17.049Z,94.11
2023-01-13T03:58:50.691Z,93.90
2023-01-13T04:01:24.290Z,93.72
2023-01-13T04:04:01.666Z,94.08
2023-01-13T04:06:39.575Z,94.14
2023-01-13T04:09:16.052Z,93.97
2023-01-13T04:11:49.574Z,94.16
2023-01-13T04:14:22.289Z,94.12
2023-01-13T04:16:51.213Z,94.01
2023-01-13T04:19:21.439Z,93.91
2023-01-13T04:21:50.318Z,93.90
2023-01-13T04:24:19.068Z,93.80
2023-01-13T04:26:47.886Z,93.71
2023-01-13T04:29:16.453Z,94.34
2023-01-13T04:31:45.528Z,94.02
2023-01-13T04:34:14.683Z,93.65
2023-01-13T04:36:45.230Z,93.53
2023-01-13T04:39:13.917Z,93.67
2023-01-13T04:41:52.945Z,93.58
2023-01-13T04:44:21.826Z,93.87
2023-01-13T04:46:50.642Z,93.66
2023-01-13T04:49:19.617Z,93.82
2023-01-13T04:51:49.903Z,93.89
2023-01-13T04:54:18.775Z,93.48
2023-01-13T04:56:47.580Z,93.45
2023-01-13T04:59:16.494Z,93.58
2023-01-13T05:01:45.394Z,93.59
2023-01-13T05:04:15.716Z,93.74
2023-01-13T05:06:44.713Z,93.44
2023-01-13T05:09:15.928Z,93.44
2023-01-13T05:11:54.411Z,93.21
2023-01-13T05:14:33.013Z,93.36
2023-01-13T05:17:02.349Z,93.39
2023-01-13T05:19:33.459Z,93.51
2023-01-13T05:22:12.876Z,93.85
2023-01-13T05:24:53.203Z,93.50
2023-01-13T05:27:21.974Z,93.96
2023-01-13T05:29:50.605Z,93.85
2023-01-13T05:32:19.473Z,93.92
2023-01-13T05:34:48.299Z,93.71
2023-01-13T05:37:17.550Z,94.02
2023-01-13T05:39:57.655Z,94.06
2023-01-13T05:42:36.348Z,93.68
2023-01-13T05:45:06.311Z,94.02
2023-01-13T05:47:35.022Z,93.81
2023-01-13T05:50:05.631Z,94.03
2023-01-13T05:52:34.077Z,94.05
2023-01-13T05:55:04.202Z,94.22
2023-01-13T05:57:33.007Z,94.12
2023-01-13T06:00:02.131Z,93.74
2023-01-13T06:02:40.653Z,94.13
2023-01-13T06:05:10.335Z,94.20
2023-01-13T06:07:38.860Z,94.07
2023-01-13T06:10:10.955Z,93.76
2023-01-13T06:12:39.803Z,93.89
2023-01-13T06:15:09.346Z,94.12
2023-01-13T06:17:38.579Z,93.92
2023-01-13T06:20:09.362Z,94.24
2023-01-13T06:22:40.319Z,94.13
2023-01-13T06:25:17.466Z,94.15
2023-01-13T06:27:47.217Z,94.05
2023-01-13T06:30:16.295Z,94.31
2023-01-13T06:32:47.587Z,94.32
2023-01-13T06:35:20.816Z,94.00
2023-01-13T06:37:54.264Z,94.21
2023-01-13T06:40:25.265Z,94.34
2023-01-13T06:43:05.765Z,94.41
2023-01-13T06:45:34.612Z,94.64
2023-01-13T06:48:03.363Z,94.28
2023-01-13T06:50:32.257Z,94.75
2023-01-13T06:53:00.920Z,94.05
2023-01-13T06:55:31.146Z,94.37
2023-01-13T06:58:00.120Z,94.68
2023-01-13T07:00:29.099Z,94.54
2023-01-13T07:03:10.378Z,94.31
2023-01-13T07:05:39.735Z,94.40
2023-01-13T07:08:10.172Z,94.49
2023-01-13T07:10:40.459Z,94.16
2023-01-13T07:13:18.977Z,94.12
2023-01-13T07:15:59.148Z,94.47
2023-01-13T07:18:31.999Z,94.43
2023-01-13T07:21:03.400Z,94.27
2023-01-13T07:23:35.471Z,94.31
2023-01-13T07:26:07.438Z,94.25
2023-01-13T07:28:36.668Z,94.67
2023-01-13T07:31:05.786Z,94.26
2023-01-13T07:33:34.587Z,94.27
2023-01-13T07:36:06.271Z,94.46
2023-01-13T07:38:35.713Z,94.26
2023-01-13T07:41:19.718Z,94.12
2023-01-13T07:43:48.537Z,94.24
2023-01-13T07:46:17.570Z,94.17
2023-01-13T07:48:48.235Z,94.02
2023-01-13T07:51:17.234Z,94.23
2023-01-13T07:53:45.956Z,94.29
2023-01-13T07:56:16.415Z,94.16
2023-01-13T07:58:50.509Z,94.27
2023-01-13T08:01:20.599Z,94.26
2023-01-13T08:03:49.294Z,94.09
2023-01-13T08:06:18.173Z,94.15
2023-01-13T08:08:46.827Z,93.98
2023-01-13T08:11:17.033Z,94.26
2023-01-13T08:13:46.037Z,94.13
2023-01-13T08:16:17.134Z,94.17
2023-01-13T08:18:45.926Z,94.44
2023-01-13T08:21:15.760Z,93.96
2023-01-13T08:23:46.786Z,94.04
2023-01-13T08:26:18.657Z,93.60
2023-01-13T08:28:49.423Z,93.76
2023-01-13T08:31:20.366Z,93.73
2023-01-13T08:33:49.484Z,93.80
2023-01-13T08:36:18.748Z,93.83
2023-01-13T08:38:47.969Z,93.57
2023-01-13T08:41:39.116Z,93.40
2023-01-13T08:44:09.385Z,93.43
2023-01-13T08:46:38.728Z,93.45
2023-01-13T08:49:07.878Z,93.52
2023-01-13T08:51:36.488Z,93.31
2023-01-13T08:54:05.869Z,93.47
2023-01-13T08:56:36.042Z,92.98
2023-01-13T08:59:04.874Z,93.45
2023-01-13T09:01:34.380Z,93.07
2023-01-13T09:04:03.083Z,93.06
2023-01-13T09:06:31.837Z,92.62
2023-01-13T09:09:02.551Z,92.59
2023-01-13T09:11:44.317Z,91.80
2023-01-13T09:14:17.918Z,92.03
2023-01-13T09:16:46.716Z,92.21
2023-01-13T09:19:15.659Z,92.10
2023-01-13T09:21:44.445Z,91.63
2023-01-13T09:24:13.421Z,91.67
2023-01-13T09:26:42.348Z,91.85
2023-01-13T09:29:11.007Z,91.59
2023-01-13T09:31:43.928Z,91.25
2023-01-13T09:34:35.873Z,90.93
2023-01-13T09:37:05.235Z,91.18
2023-01-13T09:39:34.452Z,91.24
2023-01-13T09:42:16.242Z,90.89
2023-01-13T09:44:52.995Z,90.88
2023-01-13T09:47:26.975Z,90.63
2023-01-13T09:50:00.803Z,89.83
2023-01-13T09:52:30.063Z,90.15
2023-01-13T09:55:06.551Z,89.80
2023-01-13T09:57:40.199Z,89.33
2023-01-13T10:00:15.115Z,88.81
2023-01-13T10:03:02.170Z,88.28
2023-01-13T10:05:37.886Z,87.84
2023-01-13T10:08:13.551Z,87.17
2023-01-13T10:10:47.010Z,87.04
2023-01-13T10:13:21.840Z,87.28
2023-01-13T10:16:21.579Z,86.98
2023-01-13T10:19:05.067Z,86.96
2023-01-13T10:22:07.861Z,85.96
2023-01-13T10:25:06.854Z,86.33
2023-01-13T10:27:37.295Z,86.17
2023-01-13T10:30:21.270Z,85.74
2023-01-13T10:32:55.720Z,86.18
2023-01-13T10:35:46.265Z,85.64
2023-01-13T10:38:21.226Z,86.21
2023-01-13T10:40:51.216Z,85.51
2023-01-13T10:43:20.016Z,85.96
2023-01-13T10:46:01.661Z,85.56
2023-01-13T10:48:39.893Z,85.75
2023-01-13T10:51:19.417Z,85.36
2023-01-13T10:53:53.977Z,84.74
2023-01-13T10:56:24.744Z,85.11
2023-01-13T10:58:53.540Z,84.94
2023-01-13T11:01:30.853Z,84.61
2023-01-13T11:03:59.528Z,85.26
2023-01-13T11:06:31.189Z,84.82
2023-01-13T11:09:03.344Z,85.50
2023-01-13T11:11:44.617Z,85.08
2023-01-13T11:14:31.659Z,85.00
2023-01-13T11:17:05.552Z,85.56
2023-01-13T11:19:38.021Z,85.12
2023-01-13T11:22:13.530Z,85.29
2023-01-13T11:24:49.494Z,84.99
2023-01-13T11:27:26.019Z,85.07
2023-01-13T11:30:02.885Z,84.25
2023-01-13T11:32:37.010Z,83.80
2023-01-13T11:35:16.330Z,84.04
2023-01-13T11:37:50.639Z,83.89
2023-01-13T11:40:37.791Z,83.88
2023-01-13T11:43:19.522Z,83.98
2023-01-13T11:45:53.730Z,84.47
2023-01-13T11:48:27.133Z,84.12
2023-01-13T11:51:03.769Z,83.97
2023-01-13T11:53:52.909Z,83.74
2023-01-13T11:56:37.356Z,83.77
2023-01-13T11:59:34.135Z,83.96
2023-01-13T12:02:15.109Z,84.01
2023-01-13T12:04:55.004Z,83.42
2023-01-13T12:07:37.972Z,83.43
2023-01-13T12:10:13.920Z,83.85
2023-01-13T12:12:52.758Z,83.56
2023-01-13T12:15:45.887Z,83.91
2023-01-13T12:18:34.118Z,84.10
2023-01-13T12:21:20.896Z,84.10
2023-01-13T12:24:10.955Z,84.37
2023-01-13T12:26:44.032Z,85.16
2023-01-13T12:29:19.102Z,84.98
2023-01-13T12:31:50.645Z,84.60
2023-01-13T12:34:34.382Z,84.83
2023-01-13T12:37:15.610Z,84.49
2023-01-13T12:39:54.045Z,84.95
2023-01-13T12:42:38.988Z,85.17
2023-01-13T12:45:27.314Z,84.44
2023-01-13T12:47:56.416Z,85.15
2023-01-13T12:50:46.680Z,84.97
2023-01-13T12:53:31.579Z,84.81
2023-01-13T12:56:20.265Z,85.52
2023-01-13T12:58:49.083Z,84.46
2023-01-13T13:01:19.719Z,83.92
2023-01-13T13:04:10.870Z,83.64
2023-01-13T13:06:44.048Z,83.41
2023-01-13T13:09:25.219Z,82.59
2023-01-13T13:12:03.652Z,82.74
2023-01-13T13:14:54.089Z,82.68
2023-01-13T13:18:02.505Z,82.82
2023-01-13T13:20:54.249Z,82.53
2023-01-13T13:23:49.614Z,81.89
2023-01-13T13:26:31.455Z,82.40
2023-01-13T13:29:20.775Z,82.42
2023-01-13T13:32:14.497Z,82.98
2023-01-13T13:34:53.022Z,83.01
2023-01-13T13:37:58.748Z,83.14
2023-01-13T13:40:38.579Z,82.40
2023-01-13T13:43:24.583Z,82.45
2023-01-13T13:46:03.819Z,82.88
2023-01-13T13:48:32.636Z,82.56
2023-01-13T13:51:06.345Z,83.49
2023-01-13T13:53:37.754Z,83.45
2023-01-13T13:56:18.253Z,83.08
2023-01-13T13:58:49.984Z,83.61
2023-01-13T14:01:25.710Z,83.93
2023-01-13T14:04:06.675Z,84.16
2023-01-13T14:06:36.980Z,84.18
2023-01-13T14:09:05.991Z,84.44
2023-01-13T14:11:36.267Z,84.61
2023-01-13T14:14:07.528Z,84.23
2023-01-13T14:16:38.904Z,84.35
2023-01-13T14:19:08.631Z,83.88
2023-01-13T14:21:39.918Z,83.83
2023-01-13T14:24:16.696Z,83.66
2023-01-13T14:26:51.818Z,83.45
2023-01-13T14:29:24.255Z,84.16
2023-01-13T14:31:55.161Z,83.88
2023-01-13T14:34:31.355Z,83.67
2023-01-13T14:37:04.094Z,83.75
2023-01-13T14:39:38.970Z,84.17
2023-01-13T14:42:15.146Z,84.46
2023-01-13T14:44:47.594Z,84.52
2023-01-13T14:47:23.840Z,84.27
2023-01-13T14:50:03.323Z,84.30
2023-01-13T14:52:36.762Z,84.70
2023-01-13T14:55:28.471Z,84.86
2023-01-13T14:58:18.616Z,84.63
2023-01-13T15:00:47.580Z,85.21
2023-01-13T15:03:17.857Z,84.46
2023-01-13T15:05:49.630Z,84.79
2023-01-13T15:08:40.334Z,84.39
2023-01-13T15:11:20.515Z,84.94
2023-01-13T15:13:55.148Z,85.22
2023-01-13T15:16:26.165Z,84.34
2023-01-13T15:18:55.881Z,84.96
2023-01-13T15:21:25.217Z,85.29
2023-01-13T15:23:55.865Z,84.99
2023-01-13T15:26:27.062Z,85.32
2023-01-13T15:28:57.663Z,85.42
2023-01-13T15:31:27.506Z,85.60
2023-01-13T15:33:56.571Z,85.72
2023-01-13T15:36:28.989Z,85.32
2023-01-13T15:39:00.926Z,85.54
2023-01-13T15:41:39.735Z,85.59
2023-01-13T15:44:18.603Z,85.60
2023-01-13T15:46:47.419Z,85.91
2023-01-13T15:49:24.761Z,85.84
2023-01-13T15:51:53.840Z,86.33
2023-01-13T15:54:24.949Z,86.49
2023-01-13T15:56:54.882Z,86.06
2023-01-13T15:59:27.881Z,86.27
2023-01-13T16:01:56.779Z,86.38
2023-01-13T16:04:25.529Z,85.96
2023-01-13T16:06:55.749Z,85.78
2023-01-13T16:09:25.967Z,85.82
2023-01-13T16:11:54.748Z,85.74
2023-01-13T16:14:23.430Z,85.81
2023-01-13T16:16:52.391Z,85.86
2023-01-13T16:19:21.098Z,85.11
2023-01-13T16:21:49.912Z,84.30
2023-01-13T16:24:18.635Z,84.70
2023-01-13T16:26:48.911Z,84.66
2023-01-13T16:29:18.803Z,84.03
2023-01-13T16:31:47.661Z,83.74
2023-01-13T16:34:16.254Z,83.72
2023-01-13T16:36:46.512Z,83.27
2023-01-13T16:39:22.366Z,83.11
2023-01-13T16:41:52.978Z,82.98
2023-01-13T16:44:21.762Z,83.01
2023-01-13T16:46:50.601Z,83.37
2023-01-13T16:49:19.580Z,83.15
2023-01-13T16:51:48.241Z,82.80
2023-01-13T16:54:17.084Z,83.05
2023-01-13T16:56:45.796Z,82.74
2023-01-13T16:59:17.155Z,82.85
2023-01-13T17:01:46.360Z,82.36
2023-01-13T17:04:17.927Z,83.11
2023-01-13T17:06:55.798Z,82.52
2023-01-13T17:09:27.034Z,83.44
2023-01-13T17:11:55.774Z,82.97
2023-01-13T17:14:26.387Z,82.90
2023-01-13T17:16:59.959Z,83.01
2023-01-13T17:19:28.893Z,83.20
2023-01-13T17:21:58.217Z,83.34
2023-01-13T17:24:29.054Z,83.50
2023-01-13T17:26:58.024Z,83.29
2023-01-13T17:29:28.129Z,84.49
2023-01-13T17:31:56.943Z,84.20
2023-01-13T17:34:25.739Z,84.23
2023-01-13T17:36:54.557Z,83.95
2023-01-13T17:39:24.959Z,84.37
2023-01-13T17:41:56.727Z,84.88
2023-01-13T17:44:25.523Z,84.58
2023-01-13T17:46:55.539Z,84.69
2023-01-13T17:49:24.785Z,84.51
2023-01-13T17:51:53.423Z,84.54
2023-01-13T17:54:22.785Z,84.45
2023-01-13T17:56:51.701Z,84.53
2023-01-13T17:59:22.592Z,84.34
2023-01-13T18:01:51.918Z,84.22
2023-01-13T18:04:24.875Z,84.29
2023-01-13T18:06:53.688Z,84.55
2023-01-13T18:09:23.667Z,84.10
2023-01-13T18:11:52.449Z,84.22
2023-01-13T18:14:22.855Z,84.30
2023-01-13T18:16:52.979Z,84.07
2023-01-13T18:19:33.529Z,84.35
2023-01-13T18:22:12.428Z,84.29
2023-01-13T18:24:51.017Z,84.60
2023-01-13T18:27:23.867Z,84.25
2023-01-13T18:29:54.697Z,84.03
2023-01-13T18:32:26.565Z,84.67
2023-01-13T18:35:05.277Z,84.40
2023-01-13T18:37:38.957Z,84.12
2023-01-13T18:40:10.621Z,84.38
2023-01-13T18:42:50.363Z,84.45
2023-01-13T18:45:19.712Z,84.44
2023-01-13T18:47:48.478Z,84.60
2023-01-13T18:50:19.012Z,84.71
2023-01-13T18:52:47.938Z,84.78
2023-01-13T18:55:16.959Z,84.71
2023-01-13T18:57:45.768Z,84.70
2023-01-13T19:00:17.978Z,84.46
2023-01-13T19:02:48.684Z,84.93
2023-01-13T19:05:19.204Z,84.82
2023-01-13T19:07:51.414Z,84.84
2023-01-13T19:10:20.893Z,85.19
2023-01-13T19:12:49.562Z,85.39
2023-01-13T19:15:18.418Z,85.54
2023-01-13T19:17:47.346Z,85.84
2023-01-13T19:20:16.365Z,86.12
2023-01-13T19:22:54.435Z,86.35
2023-01-13T19:25:23.335Z,86.42
2023-01-13T19:27:52.051Z,86.88
2023-01-13T19:30:21.148Z,86.85
2023-01-13T19:32:52.090Z,86.96
2023-01-13T19:35:21.067Z,87.31
2023-01-13T19:37:51.349Z,87.50
2023-01-13T19:40:20.282Z,87.52
2023-01-13T19:42:58.861Z,87.83
2023-01-13T19:45:28.259Z,87.64
2023-01-13T19:47:57.861Z,87.80
2023-01-13T19:50:26.461Z,87.65
2023-01-13T19:52:56.600Z,87.51
2023-01-13T19:55:25.593Z,88.00
2023-01-13T19:57:54.623Z,87.94
2023-01-13T20:00:23.949Z,88.04
2023-01-13T20:02:53.473Z,88.23
2023-01-13T20:05:26.127Z,87.90
2023-01-13T20:07:56.584Z,88.34
2023-01-13T20:10:25.712Z,88.11
2023-01-13T20:12:54.437Z,88.59
2023-01-13T20:15:24.667Z,88.43
2023-01-13T20:17:53.509Z,88.32
2023-01-13T20:20:22.369Z,88.23
2023-01-13T20:22:51.201Z,88.42
2023-01-13T20:25:21.621Z,88.35
2023-01-13T20:27:50.381Z,88.43
2023-01-13T20:30:19.138Z,88.66
2023-01-13T20:32:47.962Z,88.63
2023-01-13T20:35:17.256Z,88.24
2023-01-13T20:37:46.028Z,88.58
2023-01-13T20:40:18.755Z,88.65
2023-01-13T20:42:48.679Z,88.72
2023-01-13T20:45:20.973Z,88.74
2023-01-13T20:47:49.761Z,88.64
2023-01-13T20:50:18.695Z,88.96
2023-01-13T20:52:48.255Z,88.59
2023-01-13T20:55:17.128Z,89.21
2023-01-13T20:57:49.037Z,89.12
2023-01-13T21:00:20.678Z,89.47
2023-01-13T21:02:49.640Z,89.80
2023-01-13T21:05:18.600Z,89.59
2023-01-13T21:07:47.728Z,89.77
2023-01-13T21:10:16.924Z,90.02
2023-01-13T21:12:55.923Z,90.14
2023-01-13T21:15:27.566Z,90.16
2023-01-13T21:18:06.196Z,90.31
2023-01-13T21:20:36.222Z,90.20
2023-01-13T21:23:05.994Z,90.51
2023-01-13T21:25:36.554Z,90.43
2023-01-13T21:28:07.990Z,90.53
2023-01-13T21:30:39.360Z,90.69
2023-01-13T21:33:08.972Z,90.67
2023-01-13T21:35:40.096Z,90.95
2023-01-13T21:38:08.882Z,90.91
2023-01-13T21:40:37.965Z,90.87
2023-01-13T21:43:16.779Z,91.15
2023-01-13T21:45:56.960Z,91.42
2023-01-13T21:48:26.356Z,91.48
2023-01-13T21:50:55.026Z,91.06
2023-01-13T21:53:23.883Z,91.22
2023-01-13T21:55:53.278Z,91.42
2023-01-13T21:58:22.115Z,91.34
2023-01-13T22:00:52.400Z,91.25
2023-01-13T22:03:21.152Z,91.52
2023-01-13T22:05:55.089Z,91.47
2023-01-13T22:08:24.003Z,91.73
2023-01-13T22:10:58.249Z,91.30
2023-01-13T22:13:36.977Z,91.47
2023-01-13T22:16:09.689Z,91.81
2023-01-13T22:18:38.603Z,91.50
2023-01-13T22:21:07.700Z,91.57
2023-01-13T22:23:36.876Z,91.56
2023-01-13T22:26:07.713Z,91.74
2023-01-13T22:28:41.001Z,91.71
2023-01-13T22:31:12.422Z,91.61
2023-01-13T22:33:41.755Z,91.58
2023-01-13T22:36:11.886Z,91.77
2023-01-13T22:38:41.022Z,91.58
2023-01-13T22:41:11.193Z,91.57
2023-01-13T22:43:40.864Z,92.00
2023-01-13T22:46:13.231Z,91.83
2023-01-13T22:48:42.482Z,91.65
2023-01-13T22:51:13.743Z,91.66
2023-01-13T22:53:43.915Z,91.41
2023-01-13T22:56:17.805Z,91.33
2023-01-13T22:58:46.969Z,91.61
2023-01-13T23:01:18.928Z,91.57
2023-01-13T23:03:49.517Z,91.87
2023-01-13T23:06:19.641Z,91.58
2023-01-13T23:08:48.986Z,91.94
2023-01-13T23:11:20.651Z,91.45
2023-01-13T23:13:49.507Z,91.69
2023-01-13T23:16:22.384Z,91.66
2023-01-13T23:18:51.503Z,91.79
2023-01-13T23:21:23.220Z,92.05
2023-01-13T23:23:52.419Z,91.78
2023-01-13T23:26:22.013Z,91.76
2023-01-13T23:28:51.434Z,91.83
2023-01-13T23:31:23.641Z,92.17
2023-01-13T23:33:52.632Z,91.83
2023-01-13T23:36:23.772Z,92.09
2023-01-13T23:38:53.203Z,91.90
2023-01-13T23:41:25.006Z,91.97
2023-01-13T23:43:54.492Z,91.72
2023-01-13T23:46:26.069Z,91.59
2023-01-13T23:48:56.000Z,92.06
2023-01-13T23:51:26.490Z,91.89
2023-01-13T23:53:55.783Z,91.75
2023-01-13T23:56:26.734Z,92.40
2023-01-13T23:58:56.105Z,92.28
